Latest Coastal Weather Observations for Aireys Inlet

IDV60701

Issued at 12:22 am EST Sunday 26 June 2022 (issued every 10 minutes, with the page automatically refreshed every 10 minutes)

About coastal observations | Map of coastal stations | Coastal observations for VIC | Marine services | Other Formats
Station Details ID: 090180 Name: AIREYS INLET Lat: -38.46 Lon: 144.09 Height: 105.0 m
Data from the previous 72 hours. | See also: Recent months at Aireys Inlet
Date/Time
EST
Wind Sea
Height
m
Swell Vis
km
Cloud Weather Temp
°C
Press
MSL
hPa
Rain since
9am
mm
Dir  Spd
kts
Gust
kts
Height
m
Period
s
Dir
26/12:00am NW 10 21 - - - - - - - 11.8 - 0.4
 
Date/Time
EST
Wind Sea
Height
m
Swell Vis
km
Cloud Weather Temp
°C
Press
MSL
hPa
Rain since
9am
mm
Dir  Spd
kts
Gust
kts
Height
m
Period
s
Dir
25/11:30pm N 5 16 - - - - - - - 11.7 - 0.4
25/11:00pm N 5 11 - - - - - - - 11.7 - 0.4
25/10:30pm NNW 6 14 - - - - - - - 11.8 - 0.4
25/10:00pm N 8 15 - - - - - - - 11.9 - 0.4
25/09:30pm NNW 7 15 - - - - - - - 11.9 - 0.4
25/09:00pm NNW 7 15 - - - - - - - 11.9 - 0.4
25/08:30pm NNW 7 16 - - - - - - - 12.2 - 0.4
25/08:00pm NNW 8 16 - - - - - - - 11.9 - 0.4
25/07:30pm N 7 14 - - - - - - - 11.7 - 0.4
25/07:00pm N 7 12 - - - - - - - 11.6 - 0.4
25/06:30pm N 7 13 - - - - - - - 11.6 - 0.4
25/06:00pm NNW 8 14 - - - - - - Recent precip. 11.3 - 0.4
25/05:30pm NNW 9 17 - - - - - - - 11.3 - 0.4
25/05:00pm NW 8 15 - - - - - - - 11.7 - 0.2
25/04:30pm NNW 8 16 - - - - - - - 12.4 - 0.2
25/04:00pm NW 14 25 - - - - - - - 13.0 - 0.2
25/03:47pm NNW 15 25 - - - - - - - 13.3 - 0.2
25/03:30pm NW 15 24 - - - - - - - 13.4 - 0.2
25/03:23pm NW 16 26 - - - - - - - 13.5 - 0.2
25/03:00pm NW 16 24 - - - - - - - 13.8 - 0.2
25/02:39pm NW 19 31 - - - - - - - 13.3 - 0.2
25/02:30pm NW 19 28 - - - - - - - 13.5 - 0.2
25/02:04pm NW 15 25 - - - - - - - 14.0 - 0.2
25/02:00pm NW 14 24 - - - - - - - 14.2 - 0.2
25/01:38pm NW 16 26 - - - - - - - 13.2 - 0.2
25/01:30pm NW 17 24 - - - - - - - 13.2 - 0.2
25/01:00pm NW 18 26 - - - - - - - 13.4 - 0.2
25/12:30pm NW 18 29 - - - - - - - 13.0 - 0.2
25/12:00pm NW 21 33 - - - - - - - 13.3 - 0.2
25/11:30am NW 22 33 - - - - - - - 12.7 - 0.2
25/11:16am NW 19 30 - - - - - - - 12.5 - 0.2
25/11:00am NW 19 29 - - - - - - - 12.3 - 0.2
25/10:30am NW 16 28 - - - - - - - 11.7 - 0.2
25/10:16am NW 15 27 - - - - - - - 11.4 - 0.2
25/10:00am NW 11 18 - - - - - - - 11.1 - 0.2
25/09:30am NW 9 17 - - - - - - - 10.4 - 0.2
25/09:00am NW 11 18 - - - - - - - 10.0 - 0.6
25/08:30am NW 8 16 - - - - - - - 9.8 - 0.6
25/08:00am NW 9 15 - - - - - - - 9.7 - 0.6
25/07:30am NW 12 19 - - - - - - - 9.8 - 0.6
25/07:00am NW 14 23 - - - - - - - 9.8 - 0.6
25/06:30am NNW 13 18 - - - - - - - 9.0 - 0.6
25/06:00am NNW 11 15 - - - - - - - 8.5 - 0.6
25/05:30am NNW 10 14 - - - - - - - 8.9 - 0.6
25/05:00am NW 10 18 - - - - - - - 9.4 - 0.6
25/04:30am NNW 7 10 - - - - - - - 9.2 - 0.6
25/04:00am NNW 10 13 - - - - - - - 9.2 - 0.6
25/03:30am NNW 11 15 - - - - - - - 9.2 - 0.6
25/03:00am NW 10 15 - - - - - - - 9.5 - 0.6
25/02:30am NW 14 19 - - - - - - - 9.6 - 0.6
25/02:00am NW 14 22 - - - - - - - 9.6 - 0.6
25/01:30am NW 14 21 - - - - - - - 9.8 - 0.6
25/01:00am NW 16 23 - - - - - - - 9.9 - 0.6
25/12:30am NW 12 19 - - - - - - - 9.7 - 0.6
25/12:00am NW 10 15 - - - - - - - 9.5 - 0.4
 
Date/Time
EST
Wind Sea
Height
m
Swell Vis
km
Cloud Weather Temp
°C
Press
MSL
hPa
Rain since
9am
mm
Dir  Spd
kts
Gust
kts
Height
m
Period
s
Dir
24/11:30pm NW 9 14 - - - - - - - 9.7 - 0.4
24/11:00pm WNW 8 15 - - - - - - - 9.7 - 0.4
24/10:30pm NW 6 10 - - - - - - - 9.8 - 0.4
24/10:00pm NW 7 10 - - - - - - - 10.0 - 0.4
24/09:30pm NW 6 9 - - - - - - - 9.8 - 0.4
24/09:00pm N 5 10 - - - - - - - 10.1 - 0.4
24/08:30pm N 4 7 - - - - - - - 10.3 - 0.4
24/08:00pm N 3 3 - - - - - - - 9.9 - 0.4
24/07:30pm N 3 5 - - - - - - - 10.5 - 0.4
24/07:00pm NNW 4 4 - - - - - - - 10.3 - 0.4
24/06:30pm WNW 6 8 - - - - - - - 11.1 - 0.4
24/06:00pm WNW 6 9 - - - - - - - 11.2 - 0.4
24/05:30pm W 6 9 - - - - - - - 11.3 - 0.4
24/05:00pm WNW 4 5 - - - - - - - 11.4 - 0.4
24/04:30pm WNW 5 9 - - - - - - - 11.6 - 0.2
24/04:00pm W 9 14 - - - - - - - 12.0 - 0.2
24/03:30pm W 5 8 - - - - - - - 13.3 - 0.2
24/03:00pm WNW 11 16 - - - - - - - 13.9 - 0.2
24/02:30pm WNW 8 14 - - - - - - - 13.7 - 0.2
24/02:00pm WNW 10 21 - - - - - - - 14.1 - 0.2
24/01:30pm WNW 10 16 - - - - - - - 13.5 - 0.2
24/01:00pm WNW 8 13 - - - - - - - 13.8 - 0.2
24/12:30pm W 9 15 - - - - - - - 12.0 - 0.2
24/12:00pm W 8 13 - - - - - - - 12.3 - 0.2
24/11:30am W 7 13 - - - - - - - 12.2 - 0.2
24/11:00am WNW 9 15 - - - - - - - 11.4 - 0.2
24/10:30am N 5 8 - - - - - - - 12.1 - 0.2
24/10:00am WNW 8 15 - - - - - - - 12.0 - 0.2
24/09:30am WNW 11 17 - - - - - - - 11.6 - 0.0
24/09:00am NW 7 11 - - - - - - - 11.4 - 0.6
24/08:30am W 12 23 - - - - - - - 11.4 - 0.6
24/08:00am NNW 8 14 - - - - - - - 11.4 - 0.6
24/07:30am NNW 7 10 - - - - - - - 11.5 - 0.6
24/07:00am WNW 9 13 - - - - - - - 11.9 - 0.6
24/06:30am WNW 11 17 - - - - - - - 11.8 - 0.6
24/06:00am WNW 8 13 - - - - - - - 11.8 - 0.6
24/05:30am WNW 9 13 - - - - - - - 11.8 - 0.6
24/05:00am NW 3 9 - - - - - - - 11.7 - 0.6
24/04:30am NW 10 18 - - - - - - - 11.5 - 0.6
24/04:00am NW 13 19 - - - - - - - 11.5 - 0.6
24/03:30am NW 16 24 - - - - - - - 11.5 - 0.6
24/03:00am NW 11 17 - - - - - - Recent precip. 11.7 - 0.6
24/02:30am NW 12 20 - - - - - - - 12.2 - 0.6
24/02:00am NW 14 23 - - - - - - - 12.1 - 0.4
24/01:42am WNW 15 26 - - - - - - - 12.4 - 0.4
24/01:30am WNW 13 28 - - - - - - - 12.7 - 0.4
24/01:00am WNW 11 23 - - - - - - - 14.1 - 0.4
24/12:30am NW 9 22 - - - - - - - 13.8 - 0.4
24/12:00am NNW 7 18 - - - - - - - 13.6 - 0.4
 
Date/Time
EST
Wind Sea
Height
m
Swell Vis
km
Cloud Weather Temp
°C
Press
MSL
hPa
Rain since
9am
mm
Dir  Spd
kts
Gust
kts
Height
m
Period
s
Dir
23/11:30pm N 7 15 - - - - - - - 13.5 - 0.4
23/11:00pm NNW 11 20 - - - - - - - 13.7 - 0.4
23/10:30pm NNW 8 16 - - - - - - - 13.8 - 0.4
23/10:00pm NNW 9 16 - - - - - - - 13.6 - 0.4
23/09:30pm N 7 20 - - - - - - - 13.6 - 0.4
23/09:00pm NNE 7 15 - - - - - - - 12.7 - 0.4
23/08:30pm NNE 6 9 - - - - - - - 12.0 - 0.4
23/08:00pm NNE 5 10 - - - - - - - 11.6 - 0.4
23/07:30pm NNE 5 9 - - - - - - - 12.0 - 0.4
23/07:00pm NNE 6 9 - - - - - - - 12.4 - 0.4
23/06:30pm NNE 5 10 - - - - - - - 13.0 - 0.4
23/06:00pm N 9 15 - - - - - - - 13.7 - 0.2
23/05:30pm N 9 15 - - - - - - - 14.1 - 0.2
23/05:00pm N 9 16 - - - - - - - 14.0 - 0.2
23/04:30pm NNW 9 14 - - - - - - - 14.2 - 0.2
23/04:00pm NNW 12 18 - - - - - - - 14.4 - 0.2
23/03:30pm NNW 11 19 - - - - - - - 14.6 - 0.2
23/03:00pm NNW 12 24 - - - - - - - 14.7 - 0.2
23/02:30pm NNW 13 21 - - - - - - - 14.5 - 0.2
23/02:00pm NW 13 21 - - - - - - - 14.6 - 0.2
23/01:32pm NNW 15 25 - - - - - - - 14.4 - 0.2
23/01:30pm NNW 14 24 - - - - - - - 14.4 - 0.2
23/01:03pm NW 17 27 - - - - - - - 14.4 - 0.2
23/01:00pm NNW 17 23 - - - - - - - 14.4 - 0.2
23/12:39pm NNW 16 26 - - - - - - - 14.3 - 0.2
23/12:30pm NNW 14 24 - - - - - - - 14.2 - 0.2
23/12:00pm NNW 16 27 - - - - - - - 14.0 - 0.2
23/11:49am NNW 15 27 - - - - - - - 13.9 - 0.2
23/11:30am NNW 11 21 - - - - - - - 13.7 - 0.2
23/11:00am NNW 11 23 - - - - - - - 13.4 - 0.2
23/10:30am N 6 11 - - - - - - - 13.1 - 0.0
23/10:00am N 4 9 - - - - - - - 12.7 - 0.0
23/09:30am N 5 9 - - - - - - - 12.5 - 0.0
23/09:00am NNW 7 11 - - - - - - - 12.4 - 0.6
23/08:30am NNE 5 13 - - - - - - - 11.9 - 0.6
23/08:00am N 4 6 - - - - - - - 11.7 - 0.6
23/07:30am N 4 11 - - - - - - - 11.6 - 0.6
23/07:00am N 6 9 - - - - - - - 11.4 - 0.6
23/06:30am NNW 5 8 - - - - - - - 11.3 - 0.6
23/06:00am NNW 5 10 - - - - - - - 11.2 - 0.6
23/05:30am N 6 13 - - - - - - - 11.4 - 0.6
23/05:00am N 8 17 - - - - - - - 11.5 - 0.6
23/04:30am NNW 8 14 - - - - - - - 11.5 - 0.6
23/04:00am NNW 7 13 - - - - - - - 11.6 - 0.6
23/03:30am NNW 7 12 - - - - - - - 11.8 - 0.6
23/03:00am N 8 13 - - - - - - - 11.8 - 0.4
23/02:30am NW 10 17 - - - - - - - 11.8 - 0.4
23/02:00am NW 15 23 - - - - - - - 12.0 - 0.4
23/01:30am NW 10 19 - - - - - - - 12.0 - 0.4
23/01:00am NW 9 17 - - - - - - - 11.8 - 0.4
23/12:30am NE 4 7 - - - - - - - 11.7 - 0.4

Other formats

Comma delimited format used in spreadsheet applications
http://www.bom.gov.au/fwo/IDV60701/IDV60701.94846.axf

JavaScript Object Notation format (JSON) in row-major order
http://www.bom.gov.au/fwo/IDV60701/IDV60701.94846.json

Data quality

Most of these data are generated automatically and are frequently updated. Quality checks on data are not normally performed. It is possible for incorrect values to appear. Refer to information at About Latest Weather Observations and please check the disclaimer before using these data.